sensor_id;sensor_type;location;lat;lon;timestamp;P1;durP1;ratioP1;P2;durP2;ratioP2
33505;SDS011;19843;51.040;13.782;2024-03-29T00:01:16;0.30;;;0.30;;
33505;SDS011;19843;51.040;13.782;2024-03-29T00:03:42;0.30;;;0.30;;
33505;SDS011;19843;51.040;13.782;2024-03-29T00:06:08;1.05;;;0.40;;
33505;SDS011;19843;51.040;13.782;2024-03-29T00:08:34;0.30;;;0.30;;
33505;SDS011;19843;51.040;13.782;2024-03-29T00:10:59;0.35;;;0.35;;
33505;SDS011;19843;51.040;13.782;2024-03-29T00:13:25;0.50;;;0.50;;
33505;SDS011;19843;51.040;13.782;2024-03-29T00:15:50;0.25;;;0.25;;
33505;SDS011;19843;51.040;13.782;2024-03-29T00:18:16;0.30;;;0.30;;
33505;SDS011;19843;51.040;13.782;2024-03-29T00:20:42;0.30;;;0.30;;
33505;SDS011;19843;51.040;13.782;2024-03-29T00:23:07;0.25;;;0.25;;
33505;SDS011;19843;51.040;13.782;2024-03-29T00:25:33;0.70;;;0.70;;
33505;SDS011;19843;51.040;13.782;2024-03-29T00:27:58;0.35;;;0.35;;
33505;SDS011;19843;51.040;13.782;2024-03-29T00:30:23;0.32;;;0.32;;
33505;SDS011;19843;51.040;13.782;2024-03-29T00:32:49;0.45;;;0.40;;
33505;SDS011;19843;51.040;13.782;2024-03-29T00:35:14;0.40;;;0.40;;
33505;SDS011;19843;51.040;13.782;2024-03-29T00:37:40;0.30;;;0.30;;
33505;SDS011;19843;51.040;13.782;2024-03-29T00:40:06;0.20;;;0.20;;
33505;SDS011;19843;51.040;13.782;2024-03-29T00:42:32;0.38;;;0.30;;
33505;SDS011;19843;51.040;13.782;2024-03-29T00:44:57;0.40;;;0.40;;
33505;SDS011;19843;51.040;13.782;2024-03-29T00:47:23;0.30;;;0.30;;
33505;SDS011;19843;51.040;13.782;2024-03-29T00:49:48;0.40;;;0.40;;
33505;SDS011;19843;51.040;13.782;2024-03-29T00:52:14;0.32;;;0.32;;
33505;SDS011;19843;51.040;13.782;2024-03-29T00:54:39;0.35;;;0.35;;
33505;SDS011;19843;51.040;13.782;2024-03-29T00:57:04;0.40;;;0.40;;
33505;SDS011;19843;51.040;13.782;2024-03-29T00:59:32;0.40;;;0.40;;
33505;SDS011;19843;51.040;13.782;2024-03-29T01:01:57;0.38;;;0.38;;
33505;SDS011;19843;51.040;13.782;2024-03-29T01:04:23;0.85;;;0.50;;
33505;SDS011;19843;51.040;13.782;2024-03-29T01:06:48;0.30;;;0.30;;
33505;SDS011;19843;51.040;13.782;2024-03-29T01:09:14;0.35;;;0.35;;
33505;SDS011;19843;51.040;13.782;2024-03-29T01:11:39;0.30;;;0.30;;
33505;SDS011;19843;51.040;13.782;2024-03-29T01:14:06;0.30;;;0.30;;
33505;SDS011;19843;51.040;13.782;2024-03-29T01:16:32;0.30;;;0.30;;
33505;SDS011;19843;51.040;13.782;2024-03-29T01:18:58;0.35;;;0.30;;
33505;SDS011;19843;51.040;13.782;2024-03-29T01:21:24;0.20;;;0.20;;
33505;SDS011;19843;51.040;13.782;2024-03-29T01:23:51;0.20;;;0.20;;
33505;SDS011;19843;51.040;13.782;2024-03-29T01:26:16;0.30;;;0.30;;
33505;SDS011;19843;51.040;13.782;2024-03-29T01:28:44;0.45;;;0.20;;
33505;SDS011;19843;51.040;13.782;2024-03-29T01:31:11;0.30;;;0.30;;
33505;SDS011;19843;51.040;13.782;2024-03-29T01:33:37;0.20;;;0.20;;
33505;SDS011;19843;51.040;13.782;2024-03-29T01:36:03;0.40;;;0.40;;
33505;SDS011;19843;51.040;13.782;2024-03-29T01:38:30;0.30;;;0.30;;
33505;SDS011;19843;51.040;13.782;2024-03-29T01:40:55;0.50;;;0.50;;
33505;SDS011;19843;51.040;13.782;2024-03-29T01:43:21;0.30;;;0.30;;
33505;SDS011;19843;51.040;13.782;2024-03-29T01:45:47;1.65;;;0.30;;
33505;SDS011;19843;51.040;13.782;2024-03-29T01:48:15;0.30;;;0.30;;
33505;SDS011;19843;51.040;13.782;2024-03-29T01:50:42;0.25;;;0.25;;
33505;SDS011;19843;51.040;13.782;2024-03-29T01:53:08;0.10;;;0.10;;
33505;SDS011;19843;51.040;13.782;2024-03-29T01:55:37;0.30;;;0.20;;
33505;SDS011;19843;51.040;13.782;2024-03-29T01:58:02;0.20;;;0.20;;
33505;SDS011;19843;51.040;13.782;2024-03-29T02:00:29;0.20;;;0.20;;
33505;SDS011;19843;51.040;13.782;2024-03-29T02:02:56;0.50;;;0.30;;
33505;SDS011;19843;51.040;13.782;2024-03-29T02:05:22;0.20;;;0.20;;
33505;SDS011;19843;51.040;13.782;2024-03-29T02:07:47;0.30;;;0.30;;
33505;SDS011;19843;51.040;13.782;2024-03-29T02:10:16;0.40;;;0.30;;
33505;SDS011;19843;51.040;13.782;2024-03-29T02:12:42;0.30;;;0.30;;
33505;SDS011;19843;51.040;13.782;2024-03-29T02:15:08;0.40;;;0.40;;
33505;SDS011;19843;51.040;13.782;2024-03-29T02:17:33;0.55;;;0.30;;
33505;SDS011;19843;51.040;13.782;2024-03-29T02:19:59;0.32;;;0.32;;
33505;SDS011;19843;51.040;13.782;2024-03-29T02:22:24;0.20;;;0.20;;
33505;SDS011;19843;51.040;13.782;2024-03-29T02:24:54;0.30;;;0.30;;
33505;SDS011;19843;51.040;13.782;2024-03-29T02:27:21;0.20;;;0.20;;
33505;SDS011;19843;51.040;13.782;2024-03-29T02:29:47;0.30;;;0.30;;
33505;SDS011;19843;51.040;13.782;2024-03-29T02:32:13;0.30;;;0.30;;
33505;SDS011;19843;51.040;13.782;2024-03-29T02:34:38;0.35;;;0.30;;
33505;SDS011;19843;51.040;13.782;2024-03-29T02:37:04;0.30;;;0.30;;
33505;SDS011;19843;51.040;13.782;2024-03-29T02:39:31;0.45;;;0.45;;
33505;SDS011;19843;51.040;13.782;2024-03-29T02:41:57;0.30;;;0.30;;
33505;SDS011;19843;51.040;13.782;2024-03-29T02:44:22;0.30;;;0.30;;
33505;SDS011;19843;51.040;13.782;2024-03-29T02:46:47;0.20;;;0.20;;
33505;SDS011;19843;51.040;13.782;2024-03-29T02:49:13;0.30;;;0.30;;
33505;SDS011;19843;51.040;13.782;2024-03-29T02:51:38;0.55;;;0.38;;
33505;SDS011;19843;51.040;13.782;2024-03-29T02:54:04;0.30;;;0.30;;
33505;SDS011;19843;51.040;13.782;2024-03-29T02:56:29;0.35;;;0.35;;
33505;SDS011;19843;51.040;13.782;2024-03-29T02:58:55;0.95;;;0.30;;
33505;SDS011;19843;51.040;13.782;2024-03-29T03:01:21;0.20;;;0.20;;
33505;SDS011;19843;51.040;13.782;2024-03-29T03:03:47;0.30;;;0.30;;
33505;SDS011;19843;51.040;13.782;2024-03-29T03:06:12;0.40;;;0.40;;
33505;SDS011;19843;51.040;13.782;2024-03-29T03:08:38;0.20;;;0.20;;
33505;SDS011;19843;51.040;13.782;2024-03-29T03:11:22;0.32;;;0.30;;
33505;SDS011;19843;51.040;13.782;2024-03-29T03:13:48;0.30;;;0.30;;
33505;SDS011;19843;51.040;13.782;2024-03-29T03:16:13;0.32;;;0.32;;
33505;SDS011;19843;51.040;13.782;2024-03-29T03:18:39;0.30;;;0.30;;
33505;SDS011;19843;51.040;13.782;2024-03-29T03:21:04;0.30;;;0.30;;
33505;SDS011;19843;51.040;13.782;2024-03-29T03:23:30;0.60;;;0.30;;
33505;SDS011;19843;51.040;13.782;2024-03-29T03:25:59;0.35;;;0.32;;
33505;SDS011;19843;51.040;13.782;2024-03-29T03:28:26;0.20;;;0.20;;
33505;SDS011;19843;51.040;13.782;2024-03-29T03:30:52;0.30;;;0.30;;
33505;SDS011;19843;51.040;13.782;2024-03-29T03:33:19;0.35;;;0.32;;
33505;SDS011;19843;51.040;13.782;2024-03-29T03:35:45;0.40;;;0.30;;
33505;SDS011;19843;51.040;13.782;2024-03-29T03:38:11;0.25;;;0.25;;
33505;SDS011;19843;51.040;13.782;2024-03-29T03:40:37;0.30;;;0.30;;
33505;SDS011;19843;51.040;13.782;2024-03-29T03:43:04;0.30;;;0.30;;
33505;SDS011;19843;51.040;13.782;2024-03-29T03:45:37;0.95;;;0.38;;
33505;SDS011;19843;51.040;13.782;2024-03-29T03:48:05;0.30;;;0.30;;
33505;SDS011;19843;51.040;13.782;2024-03-29T03:50:31;0.20;;;0.20;;
33505;SDS011;19843;51.040;13.782;2024-03-29T03:52:57;0.20;;;0.20;;
33505;SDS011;19843;51.040;13.782;2024-03-29T03:55:23;0.28;;;0.28;;
33505;SDS011;19843;51.040;13.782;2024-03-29T03:57:48;0.40;;;0.40;;
33505;SDS011;19843;51.040;13.782;2024-03-29T04:00:14;0.30;;;0.30;;
33505;SDS011;19843;51.040;13.782;2024-03-29T04:02:40;0.60;;;0.30;;
33505;SDS011;19843;51.040;13.782;2024-03-29T04:05:06;0.28;;;0.28;;
33505;SDS011;19843;51.040;13.782;2024-03-29T04:07:32;0.30;;;0.30;;
33505;SDS011;19843;51.040;13.782;2024-03-29T04:09:57;0.40;;;0.40;;
33505;SDS011;19843;51.040;13.782;2024-03-29T04:12:23;0.30;;;0.30;;
33505;SDS011;19843;51.040;13.782;2024-03-29T04:14:48;0.40;;;0.40;;
33505;SDS011;19843;51.040;13.782;2024-03-29T04:17:14;0.20;;;0.20;;
33505;SDS011;19843;51.040;13.782;2024-03-29T04:19:39;0.30;;;0.30;;
33505;SDS011;19843;51.040;13.782;2024-03-29T04:22:05;0.30;;;0.30;;
33505;SDS011;19843;51.040;13.782;2024-03-29T04:24:31;0.30;;;0.30;;
33505;SDS011;19843;51.040;13.782;2024-03-29T04:26:56;0.30;;;0.30;;
33505;SDS011;19843;51.040;13.782;2024-03-29T04:29:22;0.30;;;0.30;;
33505;SDS011;19843;51.040;13.782;2024-03-29T04:31:47;0.30;;;0.30;;
33505;SDS011;19843;51.040;13.782;2024-03-29T04:34:13;0.28;;;0.28;;
33505;SDS011;19843;51.040;13.782;2024-03-29T04:36:38;0.35;;;0.35;;
33505;SDS011;19843;51.040;13.782;2024-03-29T04:39:04;0.30;;;0.30;;
33505;SDS011;19843;51.040;13.782;2024-03-29T04:41:30;0.40;;;0.35;;
33505;SDS011;19843;51.040;13.782;2024-03-29T04:43:59;0.40;;;0.40;;
33505;SDS011;19843;51.040;13.782;2024-03-29T04:46:26;0.30;;;0.30;;
33505;SDS011;19843;51.040;13.782;2024-03-29T04:48:55;0.30;;;0.30;;
33505;SDS011;19843;51.040;13.782;2024-03-29T04:51:20;0.30;;;0.30;;
33505;SDS011;19843;51.040;13.782;2024-03-29T04:53:46;0.30;;;0.30;;
33505;SDS011;19843;51.040;13.782;2024-03-29T04:56:11;0.25;;;0.25;;
33505;SDS011;19843;51.040;13.782;2024-03-29T04:58:37;0.30;;;0.30;;
33505;SDS011;19843;51.040;13.782;2024-03-29T05:01:02;0.20;;;0.20;;
33505;SDS011;19843;51.040;13.782;2024-03-29T05:03:28;0.20;;;0.20;;
33505;SDS011;19843;51.040;13.782;2024-03-29T05:05:53;0.20;;;0.20;;
33505;SDS011;19843;51.040;13.782;2024-03-29T05:08:19;0.57;;;0.57;;
33505;SDS011;19843;51.040;13.782;2024-03-29T05:10:47;0.25;;;0.25;;
33505;SDS011;19843;51.040;13.782;2024-03-29T05:13:16;0.45;;;0.38;;
33505;SDS011;19843;51.040;13.782;2024-03-29T05:15:43;0.20;;;0.20;;
33505;SDS011;19843;51.040;13.782;2024-03-29T05:18:09;0.30;;;0.22;;
33505;SDS011;19843;51.040;13.782;2024-03-29T05:20:35;1.35;;;0.30;;
33505;SDS011;19843;51.040;13.782;2024-03-29T05:23:00;0.30;;;0.30;;
33505;SDS011;19843;51.040;13.782;2024-03-29T05:25:26;0.30;;;0.30;;
33505;SDS011;19843;51.040;13.782;2024-03-29T05:27:52;0.28;;;0.28;;
33505;SDS011;19843;51.040;13.782;2024-03-29T05:30:18;0.25;;;0.25;;
33505;SDS011;19843;51.040;13.782;2024-03-29T05:32:44;0.30;;;0.30;;
33505;SDS011;19843;51.040;13.782;2024-03-29T05:35:09;0.28;;;0.28;;
33505;SDS011;19843;51.040;13.782;2024-03-29T05:37:36;0.40;;;0.40;;
33505;SDS011;19843;51.040;13.782;2024-03-29T05:40:02;0.20;;;0.20;;
33505;SDS011;19843;51.040;13.782;2024-03-29T05:42:30;0.30;;;0.30;;
33505;SDS011;19843;51.040;13.782;2024-03-29T05:44:57;0.20;;;0.20;;
33505;SDS011;19843;51.040;13.782;2024-03-29T05:47:22;0.20;;;0.20;;
33505;SDS011;19843;51.040;13.782;2024-03-29T05:49:48;0.20;;;0.20;;
33505;SDS011;19843;51.040;13.782;2024-03-29T05:52:15;0.20;;;0.20;;
33505;SDS011;19843;51.040;13.782;2024-03-29T05:54:41;0.50;;;0.30;;
33505;SDS011;19843;51.040;13.782;2024-03-29T05:57:08;0.40;;;0.40;;
33505;SDS011;19843;51.040;13.782;2024-03-29T05:59:33;0.22;;;0.20;;
33505;SDS011;19843;51.040;13.782;2024-03-29T06:01:59;0.40;;;0.30;;
33505;SDS011;19843;51.040;13.782;2024-03-29T06:04:25;0.20;;;0.20;;
33505;SDS011;19843;51.040;13.782;2024-03-29T06:07:00;0.30;;;0.30;;
33505;SDS011;19843;51.040;13.782;2024-03-29T06:09:29;1.98;;;0.85;;
33505;SDS011;19843;51.040;13.782;2024-03-29T06:11:56;0.20;;;0.20;;
33505;SDS011;19843;51.040;13.782;2024-03-29T06:14:25;0.20;;;0.20;;
33505;SDS011;19843;51.040;13.782;2024-03-29T06:17:10;0.47;;;0.30;;
33505;SDS011;19843;51.040;13.782;2024-03-29T06:19:48;0.70;;;0.40;;
33505;SDS011;19843;51.040;13.782;2024-03-29T06:22:15;0.45;;;0.45;;
33505;SDS011;19843;51.040;13.782;2024-03-29T06:24:42;0.30;;;0.30;;
33505;SDS011;19843;51.040;13.782;2024-03-29T06:27:09;0.30;;;0.30;;
33505;SDS011;19843;51.040;13.782;2024-03-29T06:29:35;0.30;;;0.30;;
33505;SDS011;19843;51.040;13.782;2024-03-29T06:32:01;0.30;;;0.30;;
33505;SDS011;19843;51.040;13.782;2024-03-29T06:34:29;0.32;;;0.32;;
33505;SDS011;19843;51.040;13.782;2024-03-29T06:36:56;0.30;;;0.30;;
33505;SDS011;19843;51.040;13.782;2024-03-29T06:39:21;0.30;;;0.30;;
33505;SDS011;19843;51.040;13.782;2024-03-29T06:41:47;0.30;;;0.30;;
33505;SDS011;19843;51.040;13.782;2024-03-29T06:44:12;0.30;;;0.30;;
33505;SDS011;19843;51.040;13.782;2024-03-29T06:46:38;0.52;;;0.30;;
33505;SDS011;19843;51.040;13.782;2024-03-29T06:49:03;0.32;;;0.32;;
33505;SDS011;19843;51.040;13.782;2024-03-29T06:51:29;0.32;;;0.32;;
33505;SDS011;19843;51.040;13.782;2024-03-29T06:53:55;0.40;;;0.40;;
33505;SDS011;19843;51.040;13.782;2024-03-29T06:56:20;0.30;;;0.30;;
33505;SDS011;19843;51.040;13.782;2024-03-29T06:58:46;0.30;;;0.30;;
33505;SDS011;19843;51.040;13.782;2024-03-29T07:01:11;0.32;;;0.32;;
33505;SDS011;19843;51.040;13.782;2024-03-29T07:03:37;0.47;;;0.47;;
33505;SDS011;19843;51.040;13.782;2024-03-29T07:06:02;0.30;;;0.30;;
33505;SDS011;19843;51.040;13.782;2024-03-29T07:08:28;0.30;;;0.30;;
33505;SDS011;19843;51.040;13.782;2024-03-29T07:11:00;0.35;;;0.35;;
33505;SDS011;19843;51.040;13.782;2024-03-29T07:13:30;0.30;;;0.30;;
33505;SDS011;19843;51.040;13.782;2024-03-29T07:15:59;0.65;;;0.30;;
33505;SDS011;19843;51.040;13.782;2024-03-29T07:18:25;0.40;;;0.40;;
33505;SDS011;19843;51.040;13.782;2024-03-29T07:20:50;0.50;;;0.30;;
33505;SDS011;19843;51.040;13.782;2024-03-29T07:23:16;0.57;;;0.45;;
33505;SDS011;19843;51.040;13.782;2024-03-29T07:25:45;0.47;;;0.47;;
33505;SDS011;19843;51.040;13.782;2024-03-29T07:28:13;0.57;;;0.57;;
33505;SDS011;19843;51.040;13.782;2024-03-29T07:30:41;0.43;;;0.40;;
33505;SDS011;19843;51.040;13.782;2024-03-29T07:33:06;0.60;;;0.38;;
33505;SDS011;19843;51.040;13.782;2024-03-29T07:35:34;0.32;;;0.32;;
33505;SDS011;19843;51.040;13.782;2024-03-29T07:37:59;0.50;;;0.50;;
33505;SDS011;19843;51.040;13.782;2024-03-29T07:40:25;0.82;;;0.60;;
33505;SDS011;19843;51.040;13.782;2024-03-29T07:42:50;1.25;;;0.50;;
33505;SDS011;19843;51.040;13.782;2024-03-29T07:45:16;2.17;;;0.50;;
33505;SDS011;19843;51.040;13.782;2024-03-29T07:47:41;0.40;;;0.40;;
33505;SDS011;19843;51.040;13.782;2024-03-29T07:50:07;0.40;;;0.40;;
33505;SDS011;19843;51.040;13.782;2024-03-29T07:52:35;0.40;;;0.40;;
33505;SDS011;19843;51.040;13.782;2024-03-29T07:55:00;0.30;;;0.30;;
33505;SDS011;19843;51.040;13.782;2024-03-29T07:57:26;0.50;;;0.30;;
33505;SDS011;19843;51.040;13.782;2024-03-29T07:59:51;0.57;;;0.40;;
33505;SDS011;19843;51.040;13.782;2024-03-29T08:02:17;0.40;;;0.40;;
33505;SDS011;19843;51.040;13.782;2024-03-29T08:04:42;0.60;;;0.60;;
33505;SDS011;19843;51.040;13.782;2024-03-29T08:07:10;0.35;;;0.30;;
33505;SDS011;19843;51.040;13.782;2024-03-29T08:09:37;0.43;;;0.43;;
33505;SDS011;19843;51.040;13.782;2024-03-29T08:12:04;4.55;;;0.50;;
33505;SDS011;19843;51.040;13.782;2024-03-29T08:14:30;1.27;;;0.77;;
33505;SDS011;19843;51.040;13.782;2024-03-29T08:16:55;1.17;;;0.50;;
33505;SDS011;19843;51.040;13.782;2024-03-29T08:19:21;1.38;;;0.73;;
33505;SDS011;19843;51.040;13.782;2024-03-29T08:21:46;0.60;;;0.60;;
33505;SDS011;19843;51.040;13.782;2024-03-29T08:24:12;0.50;;;0.50;;
33505;SDS011;19843;51.040;13.782;2024-03-29T08:26:37;1.60;;;1.15;;
33505;SDS011;19843;51.040;13.782;2024-03-29T08:29:03;0.55;;;0.50;;
33505;SDS011;19843;51.040;13.782;2024-03-29T08:31:28;0.77;;;0.55;;
33505;SDS011;19843;51.040;13.782;2024-03-29T08:33:54;2.53;;;0.77;;
33505;SDS011;19843;51.040;13.782;2024-03-29T08:36:20;1.73;;;0.88;;
33505;SDS011;19843;51.040;13.782;2024-03-29T08:42:52;1.92;;;1.02;;
33505;SDS011;19843;51.040;13.782;2024-03-29T08:45:17;0.82;;;0.68;;
33505;SDS011;19843;51.040;13.782;2024-03-29T08:47:43;0.85;;;0.75;;
33505;SDS011;19843;51.040;13.782;2024-03-29T08:50:08;0.65;;;0.65;;
33505;SDS011;19843;51.040;13.782;2024-03-29T08:52:34;4.60;;;1.60;;
33505;SDS011;19843;51.040;13.782;2024-03-29T08:54:59;1.75;;;1.08;;
33505;SDS011;19843;51.040;13.782;2024-03-29T08:57:25;1.52;;;0.77;;
33505;SDS011;19843;51.040;13.782;2024-03-29T08:59:50;0.90;;;0.70;;
33505;SDS011;19843;51.040;13.782;2024-03-29T09:02:16;1.17;;;0.75;;
33505;SDS011;19843;51.040;13.782;2024-03-29T09:04:41;1.88;;;1.05;;
33505;SDS011;19843;51.040;13.782;2024-03-29T09:07:07;1.67;;;0.90;;
33505;SDS011;19843;51.040;13.782;2024-03-29T09:09:32;1.50;;;0.93;;
33505;SDS011;19843;51.040;13.782;2024-03-29T09:11:58;3.08;;;1.58;;
33505;SDS011;19843;51.040;13.782;2024-03-29T09:14:23;2.85;;;0.60;;
33505;SDS011;19843;51.040;13.782;2024-03-29T09:16:49;0.70;;;0.70;;
33505;SDS011;19843;51.040;13.782;2024-03-29T09:19:15;0.55;;;0.55;;
33505;SDS011;19843;51.040;13.782;2024-03-29T09:21:41;0.80;;;0.60;;
33505;SDS011;19843;51.040;13.782;2024-03-29T09:24:06;0.63;;;0.63;;
33505;SDS011;19843;51.040;13.782;2024-03-29T09:26:35;1.23;;;0.77;;
33505;SDS011;19843;51.040;13.782;2024-03-29T09:29:02;0.75;;;0.75;;
33505;SDS011;19843;51.040;13.782;2024-03-29T09:31:27;2.40;;;0.73;;
33505;SDS011;19843;51.040;13.782;2024-03-29T09:33:53;1.08;;;0.80;;
33505;SDS011;19843;51.040;13.782;2024-03-29T09:36:22;1.00;;;0.73;;
33505;SDS011;19843;51.040;13.782;2024-03-29T09:38:49;0.95;;;0.60;;
33505;SDS011;19843;51.040;13.782;2024-03-29T09:41:16;1.17;;;0.60;;
33505;SDS011;19843;51.040;13.782;2024-03-29T09:43:42;2.58;;;0.50;;
33505;SDS011;19843;51.040;13.782;2024-03-29T09:46:10;0.73;;;0.60;;
33505;SDS011;19843;51.040;13.782;2024-03-29T09:48:37;0.60;;;0.50;;
33505;SDS011;19843;51.040;13.782;2024-03-29T09:51:06;1.27;;;0.90;;
33505;SDS011;19843;51.040;13.782;2024-03-29T09:53:32;0.75;;;0.55;;
33505;SDS011;19843;51.040;13.782;2024-03-29T09:56:01;2.72;;;1.10;;
33505;SDS011;19843;51.040;13.782;2024-03-29T09:58:29;1.67;;;0.65;;
33505;SDS011;19843;51.040;13.782;2024-03-29T10:00:55;0.70;;;0.70;;
33505;SDS011;19843;51.040;13.782;2024-03-29T10:03:22;1.85;;;0.90;;
33505;SDS011;19843;51.040;13.782;2024-03-29T10:05:54;0.98;;;0.65;;
33505;SDS011;19843;51.040;13.782;2024-03-29T10:08:21;1.15;;;0.70;;
33505;SDS011;19843;51.040;13.782;2024-03-29T10:10:48;0.60;;;0.60;;
33505;SDS011;19843;51.040;13.782;2024-03-29T10:13:14;1.60;;;0.65;;
33505;SDS011;19843;51.040;13.782;2024-03-29T10:15:40;0.73;;;0.50;;
33505;SDS011;19843;51.040;13.782;2024-03-29T10:18:12;1.05;;;0.85;;
33505;SDS011;19843;51.040;13.782;2024-03-29T10:20:38;4.65;;;1.90;;
33505;SDS011;19843;51.040;13.782;2024-03-29T10:23:03;1.92;;;0.90;;
33505;SDS011;19843;51.040;13.782;2024-03-29T10:25:31;1.38;;;0.80;;
33505;SDS011;19843;51.040;13.782;2024-03-29T10:27:57;0.77;;;0.77;;
33505;SDS011;19843;51.040;13.782;2024-03-29T10:30:24;2.25;;;0.80;;
33505;SDS011;19843;51.040;13.782;2024-03-29T10:32:50;1.52;;;1.00;;
33505;SDS011;19843;51.040;13.782;2024-03-29T10:35:15;1.55;;;1.10;;
33505;SDS011;19843;51.040;13.782;2024-03-29T10:37:42;1.13;;;0.80;;
33505;SDS011;19843;51.040;13.782;2024-03-29T10:40:08;1.30;;;0.90;;
33505;SDS011;19843;51.040;13.782;2024-03-29T10:42:38;2.08;;;1.02;;
33505;SDS011;19843;51.040;13.782;2024-03-29T10:45:05;1.08;;;0.80;;
33505;SDS011;19843;51.040;13.782;2024-03-29T10:47:31;1.55;;;1.30;;
33505;SDS011;19843;51.040;13.782;2024-03-29T10:49:57;4.63;;;1.17;;
33505;SDS011;19843;51.040;13.782;2024-03-29T10:52:27;1.15;;;0.90;;
33505;SDS011;19843;51.040;13.782;2024-03-29T10:54:53;1.00;;;0.90;;
33505;SDS011;19843;51.040;13.782;2024-03-29T10:57:24;2.60;;;0.70;;
33505;SDS011;19843;51.040;13.782;2024-03-29T10:59:56;2.58;;;0.77;;
33505;SDS011;19843;51.040;13.782;2024-03-29T11:02:49;1.17;;;0.93;;
33505;SDS011;19843;51.040;13.782;2024-03-29T11:05:28;1.30;;;0.80;;
33505;SDS011;19843;51.040;13.782;2024-03-29T11:07:55;1.42;;;0.80;;
33505;SDS011;19843;51.040;13.782;2024-03-29T11:10:40;0.98;;;0.95;;
33505;SDS011;19843;51.040;13.782;2024-03-29T11:13:16;1.27;;;0.73;;
33505;SDS011;19843;51.040;13.782;2024-03-29T11:15:49;2.20;;;0.70;;
33505;SDS011;19843;51.040;13.782;2024-03-29T11:18:15;0.77;;;0.70;;
33505;SDS011;19843;51.040;13.782;2024-03-29T11:20:44;0.93;;;0.93;;
33505;SDS011;19843;51.040;13.782;2024-03-29T11:23:17;1.50;;;0.90;;
33505;SDS011;19843;51.040;13.782;2024-03-29T11:25:45;1.63;;;0.80;;
33505;SDS011;19843;51.040;13.782;2024-03-29T11:28:12;1.73;;;0.90;;
33505;SDS011;19843;51.040;13.782;2024-03-29T11:30:42;1.00;;;0.90;;
33505;SDS011;19843;51.040;13.782;2024-03-29T11:33:30;0.80;;;0.70;;
33505;SDS011;19843;51.040;13.782;2024-03-29T11:35:58;1.10;;;1.00;;
33505;SDS011;19843;51.040;13.782;2024-03-29T11:38:34;1.05;;;0.95;;
33505;SDS011;19843;51.040;13.782;2024-03-29T11:41:01;1.95;;;0.82;;
33505;SDS011;19843;51.040;13.782;2024-03-29T11:43:31;0.90;;;0.80;;
33505;SDS011;19843;51.040;13.782;2024-03-29T11:46:07;0.80;;;0.80;;
33505;SDS011;19843;51.040;13.782;2024-03-29T11:48:33;0.73;;;0.73;;
33505;SDS011;19843;51.040;13.782;2024-03-29T11:51:00;1.02;;;0.93;;
33505;SDS011;19843;51.040;13.782;2024-03-29T11:53:26;0.80;;;0.80;;
33505;SDS011;19843;51.040;13.782;2024-03-29T11:55:53;2.53;;;0.80;;
33505;SDS011;19843;51.040;13.782;2024-03-29T11:58:20;0.63;;;0.63;;
33505;SDS011;19843;51.040;13.782;2024-03-29T12:00:47;1.67;;;0.80;;
33505;SDS011;19843;51.040;13.782;2024-03-29T12:03:17;1.42;;;0.88;;
33505;SDS011;19843;51.040;13.782;2024-03-29T12:05:43;1.00;;;0.80;;
33505;SDS011;19843;51.040;13.782;2024-03-29T12:08:10;1.10;;;0.90;;
33505;SDS011;19843;51.040;13.782;2024-03-29T12:10:36;0.60;;;0.60;;
33505;SDS011;19843;51.040;13.782;2024-03-29T12:13:02;1.85;;;0.88;;
33505;SDS011;19843;51.040;13.782;2024-03-29T12:15:29;2.15;;;1.08;;
33505;SDS011;19843;51.040;13.782;2024-03-29T12:17:59;0.82;;;0.80;;
33505;SDS011;19843;51.040;13.782;2024-03-29T12:20:31;1.00;;;1.00;;
33505;SDS011;19843;51.040;13.782;2024-03-29T12:23:00;1.33;;;0.95;;
33505;SDS011;19843;51.040;13.782;2024-03-29T12:25:30;2.22;;;1.23;;
33505;SDS011;19843;51.040;13.782;2024-03-29T12:27:57;1.20;;;1.00;;
33505;SDS011;19843;51.040;13.782;2024-03-29T12:30:24;2.15;;;1.13;;
33505;SDS011;19843;51.040;13.782;2024-03-29T12:33:00;0.80;;;0.70;;
33505;SDS011;19843;51.040;13.782;2024-03-29T12:35:27;0.77;;;0.77;;
33505;SDS011;19843;51.040;13.782;2024-03-29T12:37:54;0.93;;;0.80;;
33505;SDS011;19843;51.040;13.782;2024-03-29T12:40:21;1.02;;;0.90;;
33505;SDS011;19843;51.040;13.782;2024-03-29T12:42:49;0.95;;;0.95;;
33505;SDS011;19843;51.040;13.782;2024-03-29T12:45:16;2.45;;;0.90;;
33505;SDS011;19843;51.040;13.782;2024-03-29T12:47:43;1.58;;;1.00;;
33505;SDS011;19843;51.040;13.782;2024-03-29T12:50:11;2.88;;;0.95;;
33505;SDS011;19843;51.040;13.782;2024-03-29T12:52:41;1.00;;;0.90;;
33505;SDS011;19843;51.040;13.782;2024-03-29T12:55:07;1.70;;;1.10;;
33505;SDS011;19843;51.040;13.782;2024-03-29T12:57:40;7.72;;;1.00;;
33505;SDS011;19843;51.040;13.782;2024-03-29T13:00:07;0.75;;;0.70;;
33505;SDS011;19843;51.040;13.782;2024-03-29T13:02:35;1.35;;;0.82;;
33505;SDS011;19843;51.040;13.782;2024-03-29T13:05:01;0.80;;;0.80;;
33505;SDS011;19843;51.040;13.782;2024-03-29T13:07:27;1.63;;;1.02;;
33505;SDS011;19843;51.040;13.782;2024-03-29T13:09:53;3.00;;;0.80;;
33505;SDS011;19843;51.040;13.782;2024-03-29T13:12:18;1.25;;;0.70;;
33505;SDS011;19843;51.040;13.782;2024-03-29T13:14:44;1.35;;;0.80;;
33505;SDS011;19843;51.040;13.782;2024-03-29T13:17:09;1.00;;;0.60;;
33505;SDS011;19843;51.040;13.782;2024-03-29T13:19:35;0.80;;;0.80;;
33505;SDS011;19843;51.040;13.782;2024-03-29T13:22:01;1.00;;;0.60;;
33505;SDS011;19843;51.040;13.782;2024-03-29T13:24:26;1.42;;;1.13;;
33505;SDS011;19843;51.040;13.782;2024-03-29T13:26:54;0.90;;;0.63;;
33505;SDS011;19843;51.040;13.782;2024-03-29T13:29:20;2.10;;;0.80;;
33505;SDS011;19843;51.040;13.782;2024-03-29T13:31:46;0.60;;;0.60;;
33505;SDS011;19843;51.040;13.782;2024-03-29T13:34:11;2.47;;;0.70;;
33505;SDS011;19843;51.040;13.782;2024-03-29T13:36:40;0.57;;;0.50;;
33505;SDS011;19843;51.040;13.782;2024-03-29T13:39:07;0.60;;;0.60;;
33505;SDS011;19843;51.040;13.782;2024-03-29T13:41:34;0.60;;;0.60;;
33505;SDS011;19843;51.040;13.782;2024-03-29T13:44:02;0.60;;;0.60;;
33505;SDS011;19843;51.040;13.782;2024-03-29T13:46:35;0.85;;;0.50;;
33505;SDS011;19843;51.040;13.782;2024-03-29T13:49:01;0.60;;;0.60;;
33505;SDS011;19843;51.040;13.782;2024-03-29T13:51:28;0.70;;;0.70;;
33505;SDS011;19843;51.040;13.782;2024-03-29T13:53:54;0.60;;;0.60;;
33505;SDS011;19843;51.040;13.782;2024-03-29T13:56:20;1.00;;;0.80;;
33505;SDS011;19843;51.040;13.782;2024-03-29T13:58:46;0.70;;;0.70;;
33505;SDS011;19843;51.040;13.782;2024-03-29T14:01:12;0.90;;;0.52;;
33505;SDS011;19843;51.040;13.782;2024-03-29T14:03:37;1.23;;;0.47;;
33505;SDS011;19843;51.040;13.782;2024-03-29T14:06:03;0.98;;;0.90;;
33505;SDS011;19843;51.040;13.782;2024-03-29T14:08:30;0.50;;;0.50;;
33505;SDS011;19843;51.040;13.782;2024-03-29T14:10:57;1.15;;;0.90;;
33505;SDS011;19843;51.040;13.782;2024-03-29T14:13:23;0.55;;;0.55;;
33505;SDS011;19843;51.040;13.782;2024-03-29T14:15:49;0.60;;;0.60;;
33505;SDS011;19843;51.040;13.782;2024-03-29T14:18:15;1.00;;;0.88;;
33505;SDS011;19843;51.040;13.782;2024-03-29T14:20:40;0.88;;;0.88;;
33505;SDS011;19843;51.040;13.782;2024-03-29T14:23:06;0.70;;;0.60;;
33505;SDS011;19843;51.040;13.782;2024-03-29T14:25:35;0.85;;;0.70;;
33505;SDS011;19843;51.040;13.782;2024-03-29T14:28:02;0.77;;;0.77;;
33505;SDS011;19843;51.040;13.782;2024-03-29T14:30:29;0.60;;;0.60;;
33505;SDS011;19843;51.040;13.782;2024-03-29T14:32:58;1.10;;;0.60;;
33505;SDS011;19843;51.040;13.782;2024-03-29T14:35:28;0.73;;;0.70;;